createdAt,value
2023-02-09T00:01:30.902Z,1.30
2023-02-09T00:04:00.067Z,1.20
2023-02-09T00:06:29.963Z,1.20
2023-02-09T00:08:58.855Z,1.20
2023-02-09T00:11:42.855Z,1.10
2023-02-09T00:14:12.872Z,1.10
2023-02-09T00:16:41.828Z,1.00
2023-02-09T00:19:10.446Z,1.00
2023-02-09T00:21:38.994Z,1.00
2023-02-09T00:24:08.011Z,0.90
2023-02-09T00:26:36.216Z,0.90
2023-02-09T00:29:04.761Z,0.90
2023-02-09T00:31:34.528Z,0.80
2023-02-09T00:34:03.130Z,0.80
2023-02-09T00:36:31.520Z,0.70
2023-02-09T00:39:00.657Z,0.70
2023-02-09T00:41:46.857Z,0.70
2023-02-09T00:44:15.057Z,0.80
2023-02-09T00:46:44.787Z,0.70
2023-02-09T00:49:12.849Z,0.70
2023-02-09T00:51:40.985Z,0.70
2023-02-09T00:54:09.175Z,0.70
2023-02-09T00:56:37.377Z,0.70
2023-02-09T00:59:05.442Z,0.60
2023-02-09T01:01:33.718Z,0.60
2023-02-09T01:04:03.230Z,0.60
2023-02-09T01:06:31.508Z,0.60
2023-02-09T01:08:59.839Z,0.60
2023-02-09T01:11:29.840Z,0.60
2023-02-09T01:13:59.296Z,0.60
2023-02-09T01:16:30.391Z,0.60
2023-02-09T01:19:02.166Z,0.50
2023-02-09T01:21:30.960Z,0.50
2023-02-09T01:23:59.469Z,0.50
2023-02-09T01:26:27.590Z,0.50
2023-02-09T01:28:55.838Z,0.50
2023-02-09T01:31:26.742Z,0.40
2023-02-09T01:33:56.442Z,0.40
2023-02-09T01:36:26.721Z,0.40
2023-02-09T01:38:56.331Z,0.40
2023-02-09T01:41:24.911Z,0.30
2023-02-09T01:43:59.077Z,0.30
2023-02-09T01:46:28.991Z,0.30
2023-02-09T01:49:03.810Z,0.20
2023-02-09T01:51:37.389Z,0.20
2023-02-09T01:54:09.535Z,0.20
2023-02-09T01:56:40.388Z,0.20
2023-02-09T01:59:09.199Z,0.20
2023-02-09T02:01:38.148Z,0.10
2023-02-09T02:04:07.407Z,0.10
2023-02-09T02:06:37.956Z,0.10
2023-02-09T02:09:09.952Z,0.10
2023-02-09T02:11:38.912Z,0.00
2023-02-09T02:14:07.079Z,0.10
2023-02-09T02:16:49.610Z,0.00
2023-02-09T02:19:40.229Z,0.00
2023-02-09T02:22:36.502Z,0.00
2023-02-09T02:25:38.003Z,0.00
2023-02-09T02:28:28.073Z,0.00
2023-02-09T02:31:25.592Z,0.00
2023-02-09T02:34:04.366Z,0.00
2023-02-09T02:36:38.436Z,0.00
2023-02-09T02:39:14.541Z,0.00
2023-02-09T02:42:08.707Z,0.00
2023-02-09T02:44:41.421Z,0.10
2023-02-09T02:47:12.400Z,0.00
2023-02-09T02:49:45.580Z,0.10
2023-02-09T02:52:13.803Z,0.10
2023-02-09T02:54:48.677Z,0.10
2023-02-09T02:57:21.727Z,0.10
2023-02-09T02:59:53.870Z,0.10
2023-02-09T03:02:26.079Z,0.10
2023-02-09T03:04:57.816Z,0.20
2023-02-09T03:07:26.004Z,0.20
2023-02-09T03:09:56.319Z,0.20
2023-02-09T03:12:35.393Z,0.20
2023-02-09T03:15:15.664Z,0.20
2023-02-09T03:17:49.340Z,0.20
2023-02-09T03:20:29.279Z,0.20
2023-02-09T03:23:02.801Z,0.20
2023-02-09T03:25:33.693Z,0.20
2023-02-09T03:28:06.795Z,0.20
2023-02-09T03:30:36.819Z,0.20
2023-02-09T03:33:06.167Z,0.20
2023-02-09T03:35:40.380Z,0.20
2023-02-09T03:38:08.603Z,0.20
2023-02-09T03:40:36.936Z,0.20
2023-02-09T03:43:05.051Z,0.20
2023-02-09T03:45:33.136Z,0.20
2023-02-09T03:48:01.708Z,0.20
2023-02-09T03:50:30.450Z,0.10
2023-02-09T03:53:00.108Z,0.10
2023-02-09T03:55:28.590Z,0.10
2023-02-09T03:57:56.735Z,0.10
2023-02-09T04:00:24.932Z,0.10
2023-02-09T04:02:53.043Z,0.10
2023-02-09T04:05:23.034Z,0.10
2023-02-09T04:07:51.444Z,0.10
2023-02-09T04:10:21.148Z,0.10
2023-02-09T04:12:49.278Z,0.10
2023-02-09T04:15:17.512Z,0.10
2023-02-09T04:17:45.613Z,0.10
2023-02-09T04:20:13.702Z,0.10
2023-02-09T04:22:41.805Z,0.10
2023-02-09T04:25:09.876Z,0.10
2023-02-09T04:27:39.390Z,0.10
2023-02-09T04:30:08.700Z,0.20
2023-02-09T04:32:36.799Z,0.20
2023-02-09T04:35:05.089Z,0.20
2023-02-09T04:37:33.229Z,0.20
2023-02-09T04:40:01.394Z,0.10
2023-02-09T04:42:29.513Z,0.10
2023-02-09T04:44:59.257Z,0.20
2023-02-09T04:47:27.490Z,0.10
2023-02-09T04:49:55.611Z,0.10
2023-02-09T04:52:23.659Z,0.10
2023-02-09T04:54:51.865Z,0.10
2023-02-09T04:57:37.731Z,0.00
2023-02-09T05:00:08.651Z,0.00
2023-02-09T05:02:37.895Z,0.10
2023-02-09T05:05:06.457Z,0.00
2023-02-09T05:07:34.633Z,0.00
2023-02-09T05:10:02.808Z,0.00
2023-02-09T05:12:30.884Z,0.00
2023-02-09T05:14:58.920Z,0.00
2023-02-09T05:17:28.461Z,0.00
2023-02-09T05:19:56.615Z,0.00
2023-02-09T05:22:24.746Z,-0.10
2023-02-09T05:24:52.876Z,-0.10
2023-02-09T05:27:20.947Z,-0.10
2023-02-09T05:29:49.083Z,0.00
2023-02-09T05:32:17.556Z,0.00
2023-02-09T05:34:48.192Z,0.00
2023-02-09T05:37:17.302Z,0.00
2023-02-09T05:39:45.409Z,0.00
2023-02-09T05:42:17.200Z,0.00
2023-02-09T05:44:46.802Z,0.00
2023-02-09T05:47:16.851Z,0.00
2023-02-09T05:49:45.234Z,0.00
2023-02-09T05:52:15.177Z,0.10
2023-02-09T05:54:43.506Z,0.10
2023-02-09T05:57:11.740Z,0.00
2023-02-09T05:59:40.037Z,0.00
2023-02-09T06:02:08.320Z,0.10
2023-02-09T06:04:37.034Z,0.00
2023-02-09T06:07:05.651Z,0.00
2023-02-09T06:09:35.242Z,-0.10
2023-02-09T06:12:03.426Z,-0.10
2023-02-09T06:14:31.502Z,-0.10
2023-02-09T06:16:59.686Z,-0.10
2023-02-09T06:19:27.951Z,-0.10
2023-02-09T06:21:56.095Z,-0.20
2023-02-09T06:24:24.183Z,-0.30
2023-02-09T06:26:53.631Z,-0.30
2023-02-09T06:29:21.658Z,-0.30
2023-02-09T06:31:50.039Z,-0.30
2023-02-09T06:34:18.332Z,-0.40
2023-02-09T06:36:46.442Z,-0.30
2023-02-09T06:39:14.495Z,-0.30
2023-02-09T06:41:42.600Z,-0.40
2023-02-09T06:44:13.280Z,-0.40
2023-02-09T06:46:41.441Z,-0.40
2023-02-09T06:49:09.713Z,-0.40
2023-02-09T06:51:38.522Z,-0.40
2023-02-09T06:54:06.972Z,-0.40
2023-02-09T06:56:35.256Z,-0.40
2023-02-09T06:59:03.432Z,-0.40
2023-02-09T07:01:32.999Z,-0.40
2023-02-09T07:04:01.153Z,-0.40
2023-02-09T07:06:29.308Z,-0.40
2023-02-09T07:08:57.405Z,-0.40
2023-02-09T07:11:25.455Z,-0.50
2023-02-09T07:13:53.652Z,-0.40
2023-02-09T07:16:21.920Z,-0.50
2023-02-09T07:18:51.300Z,-0.40
2023-02-09T07:21:21.637Z,-0.40
2023-02-09T07:23:49.892Z,-0.40
2023-02-09T07:26:19.065Z,-0.40
2023-02-09T07:28:47.630Z,-0.30
2023-02-09T07:31:17.231Z,-0.30
2023-02-09T07:33:45.791Z,-0.30
2023-02-09T07:36:17.428Z,-0.30
2023-02-09T07:38:46.133Z,-0.20
2023-02-09T07:41:16.440Z,-0.20
2023-02-09T07:43:44.592Z,-0.10
2023-02-09T07:46:15.014Z,-0.10
2023-02-09T07:48:43.210Z,0.00
2023-02-09T07:51:15.896Z,0.10
2023-02-09T07:53:44.183Z,0.10
2023-02-09T07:56:12.890Z,0.10
2023-02-09T07:58:41.222Z,0.10
2023-02-09T08:01:12.366Z,0.20
2023-02-09T08:03:43.281Z,0.20
2023-02-09T08:06:19.650Z,0.20
2023-02-09T08:08:49.184Z,0.20
2023-02-09T08:11:21.216Z,0.20
2023-02-09T08:13:50.945Z,0.30
2023-02-09T08:16:23.399Z,0.30
2023-02-09T08:18:55.671Z,0.40
2023-02-09T08:21:27.722Z,0.50
2023-02-09T08:23:57.932Z,0.50
2023-02-09T08:26:26.200Z,0.60
2023-02-09T08:28:55.260Z,0.60
2023-02-09T08:31:23.607Z,0.70
2023-02-09T08:33:52.284Z,0.70
2023-02-09T08:36:21.425Z,0.80
2023-02-09T08:38:51.237Z,0.90
2023-02-09T08:41:19.962Z,0.90
2023-02-09T08:43:51.717Z,1.00
2023-02-09T08:46:20.658Z,1.10
2023-02-09T08:48:48.963Z,1.20
2023-02-09T08:51:17.714Z,1.30
2023-02-09T08:53:52.314Z,1.40
2023-02-09T08:56:23.244Z,1.40
2023-02-09T08:58:51.603Z,1.50
2023-02-09T09:01:19.925Z,1.50
2023-02-09T09:03:48.157Z,1.60
2023-02-09T09:06:16.527Z,1.60
2023-02-09T09:08:44.777Z,1.70
2023-02-09T09:11:14.936Z,1.80
2023-02-09T09:13:45.063Z,1.80
2023-02-09T09:16:17.620Z,1.80
2023-02-09T09:18:46.254Z,1.90
2023-02-09T09:21:15.156Z,1.90
2023-02-09T09:23:43.332Z,2.00
2023-02-09T09:26:11.813Z,1.90
2023-02-09T09:28:40.632Z,1.90
2023-02-09T09:31:12.049Z,2.00
2023-02-09T09:33:42.932Z,2.00
2023-02-09T09:36:12.963Z,2.10
2023-02-09T09:38:41.738Z,2.20
2023-02-09T09:41:21.165Z,2.20
2023-02-09T09:43:49.811Z,2.30
2023-02-09T09:46:22.327Z,2.40
2023-02-09T09:48:54.141Z,2.50
2023-02-09T09:51:26.809Z,2.50
2023-02-09T09:53:58.962Z,2.60
2023-02-09T09:56:31.830Z,2.70
2023-02-09T09:59:01.098Z,2.80
2023-02-09T10:01:33.264Z,3.00
2023-02-09T10:04:07.742Z,3.10
2023-02-09T10:06:35.949Z,3.20
2023-02-09T10:09:07.313Z,3.30
2023-02-09T10:11:42.409Z,3.40
2023-02-09T10:14:11.343Z,3.40
2023-02-09T10:16:41.697Z,3.50
2023-02-09T10:19:19.629Z,3.70
2023-02-09T10:21:48.902Z,3.80
2023-02-09T10:24:23.142Z,3.80
2023-02-09T10:27:05.810Z,3.70
2023-02-09T10:29:34.010Z,3.90
2023-02-09T10:32:07.828Z,4.00
2023-02-09T10:34:44.929Z,4.10
2023-02-09T10:37:22.796Z,4.20
2023-02-09T10:40:08.649Z,4.30
2023-02-09T10:42:39.047Z,4.30
2023-02-09T10:45:14.700Z,4.40
2023-02-09T10:47:57.214Z,4.30
2023-02-09T10:50:25.329Z,4.40
2023-02-09T10:53:00.112Z,4.40
2023-02-09T10:55:35.416Z,4.50
2023-02-09T10:58:13.087Z,4.50
2023-02-09T11:00:50.812Z,4.60
2023-02-09T11:03:22.512Z,4.50
2023-02-09T11:05:59.898Z,4.40
2023-02-09T11:08:39.553Z,4.40
2023-02-09T11:11:13.977Z,4.50
2023-02-09T11:13:43.081Z,4.60
2023-02-09T11:16:48.241Z,4.60
2023-02-09T11:19:30.093Z,4.60
2023-02-09T11:22:07.334Z,4.50
2023-02-09T11:24:59.204Z,4.60
2023-02-09T11:27:39.352Z,4.70
2023-02-09T11:30:24.058Z,4.70
2023-02-09T11:32:55.774Z,4.80
2023-02-09T11:35:34.141Z,4.90
2023-02-09T11:38:06.599Z,5.00
2023-02-09T11:40:39.080Z,5.00
2023-02-09T11:43:16.826Z,5.00
2023-02-09T11:45:47.896Z,5.10
2023-02-09T11:48:23.471Z,5.20
2023-02-09T11:51:02.768Z,5.30
2023-02-09T11:53:40.001Z,5.50
2023-02-09T11:56:11.914Z,5.40
2023-02-09T11:58:47.979Z,5.40
2023-02-09T12:01:39.072Z,5.60
2023-02-09T12:04:16.626Z,5.80
2023-02-09T12:06:49.948Z,5.80
2023-02-09T12:09:30.835Z,5.80
2023-02-09T12:12:08.866Z,5.70
2023-02-09T12:14:48.038Z,5.70
2023-02-09T12:17:20.722Z,5.70
2023-02-09T12:19:57.089Z,5.60
2023-02-09T12:23:02.126Z,5.60
2023-02-09T12:25:37.246Z,5.60
2023-02-09T12:28:12.952Z,5.70
2023-02-09T12:31:03.726Z,5.90
2023-02-09T12:33:34.569Z,5.90
2023-02-09T12:36:06.063Z,6.00
2023-02-09T12:39:07.936Z,5.80
2023-02-09T12:42:12.903Z,5.90
2023-02-09T12:44:56.238Z,5.90
2023-02-09T12:47:44.806Z,5.90
2023-02-09T12:50:34.723Z,5.90
2023-02-09T12:53:36.268Z,6.00
2023-02-09T12:56:27.483Z,5.90
2023-02-09T12:59:12.306Z,5.90
2023-02-09T13:02:15.934Z,5.90
2023-02-09T13:04:58.701Z,6.00
2023-02-09T13:07:36.380Z,6.10
2023-02-09T13:10:17.054Z,6.10
2023-02-09T13:12:53.864Z,6.00
2023-02-09T13:15:22.080Z,6.10
2023-02-09T13:18:05.838Z,6.10
2023-02-09T13:21:03.310Z,6.20
2023-02-09T13:23:37.098Z,6.40
2023-02-09T13:26:19.276Z,6.50
2023-02-09T13:28:48.880Z,6.50
2023-02-09T13:31:36.589Z,6.60
2023-02-09T13:34:19.310Z,6.50
2023-02-09T13:36:56.666Z,6.40
2023-02-09T13:39:27.177Z,6.40
2023-02-09T13:41:56.299Z,6.40
2023-02-09T13:44:29.910Z,6.50
2023-02-09T13:46:59.632Z,6.50
2023-02-09T13:49:29.661Z,6.50
2023-02-09T13:52:14.896Z,6.50
2023-02-09T13:54:44.194Z,6.60
2023-02-09T13:57:19.918Z,6.60
2023-02-09T13:59:50.154Z,6.60
2023-02-09T14:02:22.216Z,6.50
2023-02-09T14:04:54.811Z,6.50
2023-02-09T14:07:26.162Z,6.50
2023-02-09T14:09:59.317Z,6.40
2023-02-09T14:12:52.795Z,6.40
2023-02-09T14:15:45.004Z,6.40
2023-02-09T14:18:24.008Z,6.40
2023-02-09T14:21:23.226Z,6.30
2023-02-09T14:24:12.870Z,6.30
2023-02-09T14:26:45.502Z,6.30
2023-02-09T14:29:18.149Z,6.30
2023-02-09T14:31:50.181Z,6.30
2023-02-09T14:34:30.159Z,6.30
2023-02-09T14:37:01.539Z,6.30
2023-02-09T14:39:31.858Z,6.20
2023-02-09T14:42:03.042Z,6.30
2023-02-09T14:44:31.696Z,6.20
2023-02-09T14:47:02.492Z,6.20
2023-02-09T14:49:31.780Z,6.20
2023-02-09T14:52:06.841Z,6.20
2023-02-09T14:54:43.230Z,6.10
2023-02-09T14:57:13.214Z,6.10
2023-02-09T14:59:41.247Z,6.10
2023-02-09T15:02:18.043Z,6.10
2023-02-09T15:04:46.326Z,6.10
2023-02-09T15:07:18.803Z,6.10
2023-02-09T15:09:47.567Z,6.10
2023-02-09T15:12:22.676Z,6.10
2023-02-09T15:14:53.252Z,6.10
2023-02-09T15:17:25.725Z,6.10
2023-02-09T15:19:53.930Z,6.10
2023-02-09T15:22:22.351Z,6.10
2023-02-09T15:24:54.266Z,6.00
2023-02-09T15:27:28.017Z,6.00
2023-02-09T15:29:59.754Z,6.00
2023-02-09T15:32:30.139Z,6.00
2023-02-09T15:34:58.326Z,6.00
2023-02-09T15:37:28.166Z,6.00
2023-02-09T15:39:59.640Z,6.00
2023-02-09T15:42:45.531Z,6.00
2023-02-09T15:45:37.134Z,6.00
2023-02-09T15:48:07.295Z,6.00
2023-02-09T15:50:37.600Z,6.00
2023-02-09T15:53:08.820Z,5.90
2023-02-09T15:55:38.118Z,5.90
2023-02-09T15:58:13.741Z,5.90
2023-02-09T16:00:42.206Z,5.90
2023-02-09T16:03:15.823Z,5.90
2023-02-09T16:05:44.706Z,5.90
2023-02-09T16:08:20.529Z,5.90
2023-02-09T16:10:49.166Z,5.90
2023-02-09T16:13:18.732Z,5.90
2023-02-09T16:15:47.402Z,5.90
2023-02-09T16:18:16.851Z,5.80
2023-02-09T16:20:47.786Z,5.80
2023-02-09T16:23:20.998Z,5.80
2023-02-09T16:25:50.766Z,5.80
2023-02-09T16:28:19.174Z,5.80
2023-02-09T16:30:53.346Z,5.80
2023-02-09T16:33:24.727Z,5.80
2023-02-09T16:35:55.837Z,5.80
2023-02-09T16:38:25.665Z,5.80
2023-02-09T16:40:55.442Z,5.80
2023-02-09T16:43:24.679Z,5.80
2023-02-09T16:46:03.377Z,5.80
2023-02-09T16:48:34.993Z,5.80
2023-02-09T16:51:03.602Z,5.80
2023-02-09T16:53:36.103Z,5.80
2023-02-09T16:56:07.212Z,5.80
2023-02-09T16:58:35.361Z,5.80
2023-02-09T17:01:04.357Z,5.80
2023-02-09T17:03:36.859Z,5.80
2023-02-09T17:06:05.392Z,5.80
2023-02-09T17:08:35.689Z,5.80
2023-02-09T17:11:05.109Z,5.80
2023-02-09T17:13:34.149Z,5.80
2023-02-09T17:16:04.984Z,5.80
2023-02-09T17:18:38.429Z,5.80
2023-02-09T17:21:10.959Z,5.80
2023-02-09T17:23:39.064Z,5.80
2023-02-09T17:26:07.374Z,5.80
2023-02-09T17:28:35.627Z,5.80
2023-02-09T17:31:10.490Z,5.80
2023-02-09T17:33:40.139Z,5.80
2023-02-09T17:36:25.880Z,5.80
2023-02-09T17:38:56.678Z,5.80
2023-02-09T17:41:32.789Z,5.80
2023-02-09T17:44:22.228Z,5.80
2023-02-09T17:46:57.199Z,5.70
2023-02-09T17:49:26.843Z,5.70
2023-02-09T17:51:55.057Z,5.70
2023-02-09T17:54:23.265Z,5.70
2023-02-09T17:56:51.304Z,5.60
2023-02-09T17:59:20.365Z,5.60
2023-02-09T18:01:50.703Z,5.50
2023-02-09T18:04:21.464Z,5.50
2023-02-09T18:06:51.139Z,5.40
2023-02-09T18:09:19.399Z,5.30
2023-02-09T18:12:02.056Z,5.30
2023-02-09T18:14:32.611Z,5.30
2023-02-09T18:17:01.098Z,5.30
2023-02-09T18:19:29.443Z,5.30
2023-02-09T18:22:01.069Z,5.30
2023-02-09T18:24:31.937Z,5.30
2023-02-09T18:27:00.849Z,5.20
2023-02-09T18:29:30.280Z,5.20
2023-02-09T18:31:59.064Z,5.20
2023-02-09T18:34:27.323Z,5.20
2023-02-09T18:36:55.560Z,5.10
2023-02-09T18:39:25.101Z,5.00
2023-02-09T18:41:55.086Z,5.00
2023-02-09T18:44:28.636Z,4.90
2023-02-09T18:46:57.313Z,4.90
2023-02-09T18:49:25.439Z,4.80
2023-02-09T18:51:53.625Z,4.80
2023-02-09T18:54:21.767Z,4.80
2023-02-09T18:56:52.820Z,4.80
2023-02-09T18:59:20.997Z,4.70
2023-02-09T19:01:50.006Z,4.70
2023-02-09T19:04:18.709Z,4.60
2023-02-09T19:06:46.776Z,4.60
2023-02-09T19:09:14.987Z,4.50
2023-02-09T19:11:43.222Z,4.50
2023-02-09T19:14:30.323Z,4.40
2023-02-09T19:16:58.458Z,4.30
2023-02-09T19:19:26.590Z,4.30
2023-02-09T19:21:55.615Z,4.20
2023-02-09T19:24:23.718Z,4.10
2023-02-09T19:26:51.896Z,4.00
2023-02-09T19:29:22.656Z,4.00
2023-02-09T19:31:50.870Z,4.00
2023-02-09T19:34:18.976Z,4.00
2023-02-09T19:36:47.370Z,4.00
2023-02-09T19:39:17.062Z,3.90
2023-02-09T19:41:47.072Z,3.80
2023-02-09T19:44:15.520Z,3.80
2023-02-09T19:46:45.605Z,3.80
2023-02-09T19:49:13.800Z,3.70
2023-02-09T19:51:41.896Z,3.70
2023-02-09T19:54:10.089Z,3.70
2023-02-09T19:56:38.443Z,3.60
2023-02-09T19:59:06.581Z,3.60
2023-02-09T20:01:34.771Z,3.60
2023-02-09T20:04:04.251Z,3.60
2023-02-09T20:06:33.897Z,3.50
2023-02-09T20:09:02.560Z,3.40
2023-02-09T20:11:30.734Z,3.40
2023-02-09T20:14:01.956Z,3.30
2023-02-09T20:16:30.361Z,3.30
2023-02-09T20:18:58.412Z,3.20
2023-02-09T20:21:28.066Z,3.20
2023-02-09T20:23:56.694Z,3.10
2023-02-09T20:26:29.074Z,3.10
2023-02-09T20:28:58.238Z,3.00
2023-02-09T20:31:29.193Z,3.00
2023-02-09T20:33:57.514Z,2.90
2023-02-09T20:36:27.169Z,2.90
2023-02-09T20:38:55.289Z,2.90
2023-02-09T20:41:23.521Z,2.80
2023-02-09T20:44:09.282Z,2.80
2023-02-09T20:46:55.020Z,2.70
2023-02-09T20:49:25.826Z,2.70
2023-02-09T20:51:55.474Z,2.60
2023-02-09T20:54:23.965Z,2.70
2023-02-09T20:56:52.253Z,2.70
2023-02-09T20:59:20.459Z,2.60
2023-02-09T21:01:48.903Z,2.50
2023-02-09T21:04:18.016Z,2.50
2023-02-09T21:06:46.267Z,2.50
2023-02-09T21:09:16.837Z,2.60
2023-02-09T21:11:45.074Z,2.50
2023-02-09T21:14:21.978Z,2.50
2023-02-09T21:16:56.269Z,2.50
2023-02-09T21:19:25.312Z,2.50
2023-02-09T21:21:53.553Z,2.40
2023-02-09T21:24:23.384Z,2.40
2023-02-09T21:26:51.747Z,2.40
2023-02-09T21:29:19.916Z,2.30
2023-02-09T21:31:48.126Z,2.30
2023-02-09T21:34:17.060Z,2.30
2023-02-09T21:36:45.282Z,2.30
2023-02-09T21:39:14.285Z,2.30
2023-02-09T21:42:01.432Z,2.20
2023-02-09T21:44:30.357Z,2.30
2023-02-09T21:46:58.449Z,2.20
2023-02-09T21:49:26.528Z,2.20
2023-02-09T21:51:54.649Z,2.20
2023-02-09T21:54:25.544Z,2.20
2023-02-09T21:56:56.111Z,2.10
2023-02-09T21:59:24.244Z,2.10
2023-02-09T22:01:53.447Z,2.00
2023-02-09T22:04:21.985Z,2.10
2023-02-09T22:06:50.300Z,2.00
2023-02-09T22:09:20.190Z,2.00
2023-02-09T22:11:48.292Z,2.00
2023-02-09T22:14:18.176Z,2.00
2023-02-09T22:16:46.780Z,1.90
2023-02-09T22:19:14.968Z,2.00
2023-02-09T22:21:43.117Z,1.90
2023-02-09T22:24:13.645Z,1.90
2023-02-09T22:26:41.866Z,1.90
2023-02-09T22:29:11.377Z,1.80
2023-02-09T22:31:41.334Z,1.80
2023-02-09T22:34:09.907Z,1.90
2023-02-09T22:36:39.827Z,1.80
2023-02-09T22:39:08.934Z,1.80
2023-02-09T22:41:37.457Z,1.70
2023-02-09T22:44:07.585Z,1.80
2023-02-09T22:46:37.567Z,1.80
2023-02-09T22:49:09.332Z,1.80
2023-02-09T22:51:37.893Z,1.70
2023-02-09T22:54:07.055Z,1.70
2023-02-09T22:56:35.768Z,1.70
2023-02-09T22:59:04.007Z,1.70
2023-02-09T23:01:32.290Z,1.70
2023-02-09T23:04:00.596Z,1.60
2023-02-09T23:06:30.698Z,1.60
2023-02-09T23:09:00.969Z,1.60
2023-02-09T23:11:30.232Z,1.50
2023-02-09T23:14:14.214Z,1.50
2023-02-09T23:16:43.939Z,1.50
2023-02-09T23:19:14.366Z,1.40
2023-02-09T23:21:45.689Z,1.40
2023-02-09T23:24:15.072Z,1.30
2023-02-09T23:26:43.672Z,1.30
2023-02-09T23:29:14.540Z,1.30
2023-02-09T23:31:43.788Z,1.30
2023-02-09T23:34:14.820Z,1.30
2023-02-09T23:36:44.681Z,1.20
2023-02-09T23:39:15.446Z,1.30
2023-02-09T23:41:43.825Z,1.40
2023-02-09T23:44:12.757Z,1.40
2023-02-09T23:46:41.628Z,1.40
2023-02-09T23:49:09.850Z,1.40
2023-02-09T23:51:38.155Z,1.30
2023-02-09T23:54:08.404Z,1.40
2023-02-09T23:56:38.070Z,1.30
2023-02-09T23:59:07.528Z,1.30
